Time;durP1;ratioP1;P1;durP2;ratioP2;P2;SDS_P1;SDS_P2;PMS_P1;PMS_P2;Temp;Humidity;BMP_temperature;BMP_pressure;BME280_temperature;BME280_humidity;BME280_pressure;Samples;Min_cycle;Max_cycle;Signal;HPM_P1;HPM_P2
2023/08/22 00:01:52;;;;;;;4.10;3.90;;;;;;;;;;5011142;28;20542;-84
2023/08/22 00:04:21;;;;;;;11.27;5.63;;;;;;;;;;5010456;28;20232;-85
2023/08/22 00:06:50;;;;;;;8.13;5.28;;;;;;;;;;5010022;28;20694;-85
2023/08/22 00:09:19;;;;;;;6.22;4.90;;;;;;;;;;5010070;28;20224;-83
2023/08/22 00:11:46;;;;;;;6.22;4.95;;;;;;;;;;5007234;28;20282;-84
2023/08/22 00:14:21;;;;;;;4.75;4.45;;;;;;;;;;5012026;28;20327;-85
2023/08/22 00:16:48;;;;;;;5.40;4.80;;;;;;;;;;5007641;28;20335;-84
2023/08/22 00:19:17;;;;;;;5.93;5.32;;;;;;;;;;5010174;28;20225;-85
2023/08/22 00:21:46;;;;;;;5.05;4.57;;;;;;;;;;5009434;28;20236;-85
2023/08/22 00:24:17;;;;;;;5.57;5.10;;;;;;;;;;5011139;28;20244;-84
2023/08/22 00:26:45;;;;;;;5.55;5.05;;;;;;;;;;5005986;28;20225;-85
2023/08/22 00:29:13;;;;;;;5.10;4.60;;;;;;;;;;5011587;28;20730;-85
2023/08/22 00:31:46;;;;;;;5.45;4.95;;;;;;;;;;5008033;28;20240;-83
2023/08/22 00:34:17;;;;;;;4.97;4.43;;;;;;;;;;5011562;28;20274;-83
2023/08/22 00:36:55;;;;;;;4.60;4.22;;;;;;;;;;5008739;28;20231;-83
2023/08/22 00:39:24;;;;;;;5.75;5.13;;;;;;;;;;5009764;28;20232;-84
2023/08/22 00:41:56;;;;;;;5.95;5.50;;;;;;;;;;5003267;28;20364;-85
2023/08/22 00:44:24;;;;;;;7.38;5.50;;;;;;;;;;5010614;28;20334;-83
2023/08/22 00:46:56;;;;;;;5.32;4.82;;;;;;;;;;5006573;28;20243;-85
2023/08/22 00:49:24;;;;;;;5.40;4.72;;;;;;;;;;5010005;28;20221;-83
2023/08/22 00:51:59;;;;;;;6.18;5.60;;;;;;;;;;5004321;28;20240;-84
2023/08/22 00:54:28;;;;;;;5.13;4.70;;;;;;;;;;5010065;28;20223;-85
2023/08/22 00:56:56;;;;;;;5.43;4.93;;;;;;;;;;5008484;28;20247;-84
2023/08/22 00:59:24;;;;;;;6.25;5.22;;;;;;;;;;5009048;28;20224;-84
2023/08/22 01:01:51;;;;;;;7.00;5.28;;;;;;;;;;5009851;28;20715;-84
2023/08/22 01:04:19;;;;;;;5.00;4.50;;;;;;;;;;5008884;28;20628;-82
2023/08/22 01:06:49;;;;;;;6.05;5.35;;;;;;;;;;5008836;28;20217;-84
2023/08/22 01:09:24;;;;;;;5.25;4.75;;;;;;;;;;5010164;28;20252;-84
2023/08/22 01:11:52;;;;;;;8.02;5.10;;;;;;;;;;5005911;28;20302;-84
2023/08/22 01:14:21;;;;;;;4.47;4.10;;;;;;;;;;5009472;28;20233;-83
2023/08/22 01:16:49;;;;;;;7.45;5.50;;;;;;;;;;5011544;28;20305;-85
2023/08/22 01:19:18;;;;;;;5.25;4.80;;;;;;;;;;4999809;28;20785;-83
2023/08/22 01:21:49;;;;;;;10.23;4.50;;;;;;;;;;5019978;28;20322;-85
2023/08/22 01:24:19;;;;;;;6.90;5.85;;;;;;;;;;4991728;28;20245;-84
2023/08/22 01:26:47;;;;;;;4.82;4.32;;;;;;;;;;5000989;28;20315;-83
2023/08/22 01:29:18;;;;;;;5.90;4.25;;;;;;;;;;4989239;28;20264;-84
2023/08/22 01:31:49;;;;;;;4.30;3.90;;;;;;;;;;4996229;28;20674;-84
2023/08/22 01:34:20;;;;;;;9.10;5.45;;;;;;;;;;4989978;28;20566;-84
2023/08/22 01:36:53;;;;;;;5.30;4.90;;;;;;;;;;5009562;28;20235;-84
2023/08/22 01:39:21;;;;;;;7.40;5.28;;;;;;;;;;5008673;28;20228;-84
2023/08/22 01:41:54;;;;;;;5.43;4.93;;;;;;;;;;5011059;28;20201;-85
2023/08/22 01:44:23;;;;;;;6.78;5.28;;;;;;;;;;5010941;28;20315;-84
2023/08/22 01:46:53;;;;;;;6.13;4.88;;;;;;;;;;5010603;28;20201;-85
2023/08/22 01:49:20;;;;;;;4.93;4.43;;;;;;;;;;5010489;28;20559;-84
2023/08/22 01:51:50;;;;;;;5.00;4.60;;;;;;;;;;5010343;28;20220;-84
2023/08/22 01:54:21;;;;;;;5.38;4.88;;;;;;;;;;5009024;28;20232;-85
2023/08/22 01:56:50;;;;;;;4.78;4.35;;;;;;;;;;5011325;28;20635;-84
2023/08/22 01:59:19;;;;;;;4.78;4.38;;;;;;;;;;5010124;28;20250;-83
2023/08/22 02:01:48;;;;;;;5.68;5.10;;;;;;;;;;5010382;28;20209;-84
2023/08/22 02:04:16;;;;;;;14.70;5.07;;;;;;;;;;5000982;28;20233;-83
2023/08/22 02:06:46;;;;;;;5.07;4.50;;;;;;;;;;4989952;28;20209;-84
2023/08/22 02:09:17;;;;;;;4.75;4.32;;;;;;;;;;4991106;28;20253;-83
2023/08/22 02:11:48;;;;;;;4.93;4.30;;;;;;;;;;4990744;28;20281;-84
2023/08/22 02:14:18;;;;;;;6.55;4.47;;;;;;;;;;4991213;28;20460;-85
2023/08/22 02:16:49;;;;;;;4.68;4.25;;;;;;;;;;4990975;28;20202;-85
2023/08/22 02:19:18;;;;;;;6.90;5.00;;;;;;;;;;4990536;28;20204;-85
2023/08/22 02:21:48;;;;;;;4.93;4.60;;;;;;;;;;4990255;28;20212;-84
2023/08/22 02:24:16;;;;;;;6.53;5.38;;;;;;;;;;4990565;28;20260;-84
2023/08/22 02:26:45;;;;;;;4.85;3.95;;;;;;;;;;4991375;28;20248;-84
2023/08/22 02:29:17;;;;;;;6.05;5.30;;;;;;;;;;4990417;28;20677;-84
2023/08/22 02:31:44;;;;;;;5.68;5.10;;;;;;;;;;4991047;28;20292;-84
2023/08/22 02:34:14;;;;;;;5.03;4.43;;;;;;;;;;4997918;28;20197;-87
2023/08/22 02:36:43;;;;;;;5.00;4.60;;;;;;;;;;5008756;28;20212;-84
2023/08/22 02:39:12;;;;;;;5.10;4.68;;;;;;;;;;5010837;28;20208;-83
2023/08/22 02:41:41;;;;;;;7.00;4.38;;;;;;;;;;5014001;28;20197;-84
2023/08/22 02:44:12;;;;;;;7.15;5.03;;;;;;;;;;5017090;28;20204;-84
2023/08/22 02:46:41;;;;;;;6.63;4.82;;;;;;;;;;5010377;28;20279;-84
2023/08/22 02:49:09;;;;;;;4.88;4.38;;;;;;;;;;5010703;28;20233;-84
2023/08/22 02:51:38;;;;;;;5.93;5.13;;;;;;;;;;5013128;28;20218;-83
2023/08/22 02:54:06;;;;;;;8.00;4.95;;;;;;;;;;5016521;28;20578;-84
2023/08/22 02:56:36;;;;;;;4.50;4.20;;;;;;;;;;5011044;28;20199;-84
2023/08/22 02:59:09;;;;;;;6.88;4.95;;;;;;;;;;5010118;28;20236;-84
2023/08/22 03:01:40;;;;;;;5.63;5.05;;;;;;;;;;5010636;28;20646;-84
2023/08/22 03:04:10;;;;;;;7.57;5.32;;;;;;;;;;5009532;28;20223;-83
2023/08/22 03:06:40;;;;;;;7.22;4.45;;;;;;;;;;5009993;28;20214;-85
2023/08/22 03:09:07;;;;;;;4.50;4.10;;;;;;;;;;5010905;28;20239;-83
2023/08/22 03:11:37;;;;;;;6.65;5.22;;;;;;;;;;5009753;28;20209;-84
2023/08/22 03:14:06;;;;;;;5.72;5.20;;;;;;;;;;5010449;28;20238;-84
2023/08/22 03:16:35;;;;;;;8.25;5.43;;;;;;;;;;5012263;28;20272;-83
2023/08/22 03:19:03;;;;;;;6.10;4.13;;;;;;;;;;5014669;28;20201;-84
2023/08/22 03:21:31;;;;;;;10.05;4.70;;;;;;;;;;5019299;28;20209;-85
2023/08/22 03:24:00;;;;;;;6.35;4.40;;;;;;;;;;5006944;28;20213;-83
2023/08/22 03:26:31;;;;;;;6.72;5.22;;;;;;;;;;5020895;28;20266;-84
2023/08/22 03:28:59;;;;;;;6.70;6.07;;;;;;;;;;5020560;28;20287;-84
2023/08/22 03:31:29;;;;;;;6.20;5.03;;;;;;;;;;5020880;28;20219;-84
2023/08/22 03:33:59;;;;;;;7.10;5.15;;;;;;;;;;5021115;28;20208;-85
2023/08/22 03:36:27;;;;;;;5.10;4.05;;;;;;;;;;5023041;28;20214;-84
2023/08/22 03:38:59;;;;;;;5.45;4.95;;;;;;;;;;5029191;28;20213;-82
2023/08/22 03:41:26;;;;;;;7.00;4.80;;;;;;;;;;5033056;28;20196;-83
2023/08/22 03:43:59;;;;;;;6.57;4.80;;;;;;;;;;5032591;28;20189;-82
2023/08/22 03:46:32;;;;;;;5.22;4.60;;;;;;;;;;5030596;28;20299;-82
2023/08/22 03:49:00;;;;;;;7.18;4.68;;;;;;;;;;5030817;28;20298;-83
2023/08/22 03:51:30;;;;;;;8.52;4.97;;;;;;;;;;5016291;28;20217;-83
2023/08/22 03:53:58;;;;;;;7.00;4.60;;;;;;;;;;5024930;28;20212;-84
2023/08/22 03:56:27;;;;;;;5.47;4.57;;;;;;;;;;5026699;28;20374;-83
2023/08/22 03:58:58;;;;;;;7.07;4.95;;;;;;;;;;5027102;28;20299;-83
2023/08/22 04:01:26;;;;;;;5.85;4.72;;;;;;;;;;5011462;28;20666;-83
2023/08/22 04:03:54;;;;;;;11.40;5.25;;;;;;;;;;5014162;28;20764;-85
2023/08/22 04:06:25;;;;;;;6.78;4.55;;;;;;;;;;5001762;28;20236;-85
2023/08/22 04:08:54;;;;;;;7.38;5.80;;;;;;;;;;5010558;28;20221;-83
2023/08/22 04:11:24;;;;;;;9.48;4.82;;;;;;;;;;5010746;28;20208;-84
2023/08/22 04:13:54;;;;;;;7.68;5.07;;;;;;;;;;5009361;28;20212;-84
2023/08/22 04:16:21;;;;;;;5.53;5.03;;;;;;;;;;5008701;28;20196;-86
2023/08/22 04:18:49;;;;;;;8.13;5.40;;;;;;;;;;5008945;28;20203;-84
2023/08/22 04:21:19;;;;;;;11.18;5.47;;;;;;;;;;5008844;28;20220;-84
2023/08/22 04:23:49;;;;;;;6.53;4.95;;;;;;;;;;5011597;28;20593;-84
2023/08/22 04:26:17;;;;;;;6.55;5.50;;;;;;;;;;5013290;28;20225;-84
2023/08/22 04:28:46;;;;;;;5.30;4.90;;;;;;;;;;5012966;28;20201;-85
2023/08/22 04:31:14;;;;;;;4.53;4.22;;;;;;;;;;5013666;28;20215;-83
2023/08/22 04:33:42;;;;;;;5.78;5.00;;;;;;;;;;5013006;28;20261;-84
2023/08/22 04:36:13;;;;;;;5.47;5.03;;;;;;;;;;5013422;28;20197;-83
2023/08/22 04:38:56;;;;;;;5.00;4.53;;;;;;;;;;5012392;28;20203;-85
2023/08/22 04:41:26;;;;;;;7.88;5.10;;;;;;;;;;5011785;28;20185;-84
2023/08/22 04:43:57;;;;;;;8.70;5.20;;;;;;;;;;5014110;28;20228;-84
2023/08/22 04:46:26;;;;;;;4.95;4.60;;;;;;;;;;5012685;28;20271;-84
2023/08/22 04:48:56;;;;;;;7.68;6.13;;;;;;;;;;5013166;28;20228;-84
2023/08/22 04:51:28;;;;;;;10.07;5.32;;;;;;;;;;5012401;28;20200;-85
2023/08/22 04:53:58;;;;;;;8.05;5.35;;;;;;;;;;5011596;28;20193;-83
2023/08/22 04:56:32;;;;;;;6.30;5.63;;;;;;;;;;5011761;28;20243;-85
2023/08/22 04:59:01;;;;;;;6.57;6.05;;;;;;;;;;5012090;28;20248;-84
2023/08/22 05:01:31;;;;;;;7.22;5.90;;;;;;;;;;5012457;28;20260;-85
2023/08/22 05:04:00;;;;;;;5.85;5.35;;;;;;;;;;5007740;28;20714;-84
2023/08/22 05:06:29;;;;;;;6.40;5.80;;;;;;;;;;5015083;28;20232;-84
2023/08/22 05:09:02;;;;;;;7.03;5.40;;;;;;;;;;5012090;28;20231;-84
2023/08/22 05:11:33;;;;;;;6.03;5.50;;;;;;;;;;5009417;28;20208;-85
2023/08/22 05:14:03;;;;;;;7.10;6.47;;;;;;;;;;5007986;28;20217;-84
2023/08/22 05:16:31;;;;;;;7.75;5.90;;;;;;;;;;4996088;28;20228;-85
2023/08/22 05:19:01;;;;;;;6.40;5.88;;;;;;;;;;5012817;28;20201;-85
2023/08/22 05:21:30;;;;;;;6.28;5.78;;;;;;;;;;5013155;28;20283;-86
2023/08/22 05:24:02;;;;;;;7.45;6.75;;;;;;;;;;5012677;28;20300;-84
2023/08/22 05:26:35;;;;;;;8.18;5.88;;;;;;;;;;5011302;28;20231;-84
2023/08/22 05:29:05;;;;;;;7.35;6.68;;;;;;;;;;5011423;28;20204;-85
2023/08/22 05:31:34;;;;;;;7.85;6.38;;;;;;;;;;5011117;28;20208;-83
2023/08/22 05:34:04;;;;;;;7.60;6.80;;;;;;;;;;5010509;28;20235;-85
2023/08/22 05:36:33;;;;;;;11.02;6.47;;;;;;;;;;4999113;28;20213;-86
2023/08/22 05:39:06;;;;;;;6.88;6.20;;;;;;;;;;4994369;28;20218;-85
2023/08/22 05:41:35;;;;;;;7.32;6.72;;;;;;;;;;5010826;28;20216;-84
2023/08/22 05:44:14;;;;;;;7.88;7.13;;;;;;;;;;5021179;28;20235;-83
2023/08/22 05:46:44;;;;;;;8.18;7.18;;;;;;;;;;5010395;28;20235;-84
2023/08/22 05:49:14;;;;;;;9.48;6.90;;;;;;;;;;5014632;28;20255;-84
2023/08/22 05:51:45;;;;;;;8.45;7.05;;;;;;;;;;5040540;28;20200;-86
2023/08/22 05:54:16;;;;;;;8.57;7.35;;;;;;;;;;5033218;28;20231;-84
2023/08/22 05:56:44;;;;;;;14.40;7.38;;;;;;;;;;5033810;28;20198;-85
2023/08/22 05:59:14;;;;;;;10.48;6.72;;;;;;;;;;5032025;28;20200;-84
2023/08/22 06:01:44;;;;;;;13.57;6.90;;;;;;;;;;5031912;28;20207;-85
2023/08/22 06:04:11;;;;;;;9.13;7.03;;;;;;;;;;5032341;28;20273;-85
2023/08/22 06:06:40;;;;;;;7.15;6.55;;;;;;;;;;5031533;28;20238;-87
2023/08/22 06:09:09;;;;;;;12.35;7.78;;;;;;;;;;5032367;28;20316;-84
2023/08/22 06:11:40;;;;;;;7.60;7.05;;;;;;;;;;5016464;28;20224;-85
2023/08/22 06:14:11;;;;;;;7.82;6.50;;;;;;;;;;5009654;28;20208;-83
2023/08/22 06:16:41;;;;;;;6.32;5.72;;;;;;;;;;5011724;28;20203;-85
2023/08/22 06:19:11;;;;;;;6.80;6.03;;;;;;;;;;4998507;28;20200;-85
2023/08/22 06:21:44;;;;;;;6.53;5.95;;;;;;;;;;4999724;28;20209;-86
2023/08/22 06:24:13;;;;;;;7.70;6.80;;;;;;;;;;4999281;28;20212;-84
2023/08/22 06:26:43;;;;;;;6.60;6.15;;;;;;;;;;4999034;28;20224;-85
2023/08/22 06:29:12;;;;;;;6.72;6.13;;;;;;;;;;5009344;28;20644;-86
2023/08/22 06:31:42;;;;;;;5.85;5.45;;;;;;;;;;4991910;28;20307;-86
2023/08/22 06:34:09;;;;;;;6.47;5.82;;;;;;;;;;4990738;28;20240;-85
2023/08/22 06:36:38;;;;;;;6.50;6.00;;;;;;;;;;4990616;28;20197;-85
2023/08/22 06:39:08;;;;;;;7.18;6.57;;;;;;;;;;5005300;28;20206;-83
2023/08/22 06:41:37;;;;;;;7.22;5.65;;;;;;;;;;5011175;28;20219;-85
2023/08/22 06:44:12;;;;;;;6.35;5.97;;;;;;;;;;5011178;28;20212;-85
2023/08/22 06:46:41;;;;;;;6.25;5.65;;;;;;;;;;5010228;28;20239;-86
2023/08/22 06:49:11;;;;;;;6.70;5.70;;;;;;;;;;5009923;28;20236;-86
2023/08/22 06:51:40;;;;;;;10.90;6.28;;;;;;;;;;5009994;28;20202;-85
2023/08/22 06:54:15;;;;;;;6.30;5.72;;;;;;;;;;5008703;28;20258;-84
2023/08/22 06:56:45;;;;;;;6.22;5.78;;;;;;;;;;4992601;28;20306;-86
2023/08/22 06:59:26;;;;;;;6.63;5.97;;;;;;;;;;5000299;28;20291;-84
2023/08/22 07:01:55;;;;;;;6.20;5.70;;;;;;;;;;5014624;28;20199;-85
2023/08/22 07:04:23;;;;;;;5.65;5.30;;;;;;;;;;4999544;28;20585;-84
2023/08/22 07:06:53;;;;;;;6.85;5.75;;;;;;;;;;5010600;28;20224;-85
2023/08/22 07:09:22;;;;;;;7.57;6.78;;;;;;;;;;4998965;28;20339;-83
2023/08/22 07:11:53;;;;;;;6.45;5.85;;;;;;;;;;4999473;28;20197;-85
2023/08/22 07:14:24;;;;;;;7.03;6.47;;;;;;;;;;5003568;28;20205;-84
2023/08/22 07:16:52;;;;;;;7.07;6.20;;;;;;;;;;4999038;28;20223;-84
2023/08/22 07:19:22;;;;;;;6.43;5.93;;;;;;;;;;4992783;28;20200;-85
2023/08/22 07:21:50;;;;;;;6.88;5.78;;;;;;;;;;4994267;28;20222;-84
2023/08/22 07:24:21;;;;;;;6.32;5.82;;;;;;;;;;4993307;28;20332;-86
2023/08/22 07:26:51;;;;;;;6.40;5.75;;;;;;;;;;4990724;28;20287;-85
2023/08/22 07:29:18;;;;;;;6.53;6.13;;;;;;;;;;5003368;28;20214;-85
2023/08/22 07:31:49;;;;;;;6.75;5.93;;;;;;;;;;5009234;28;20204;-85
2023/08/22 07:34:19;;;;;;;8.23;6.05;;;;;;;;;;4997473;28;20267;-85
2023/08/22 07:36:47;;;;;;;9.30;6.38;;;;;;;;;;4999369;28;20213;-85
2023/08/22 07:39:18;;;;;;;10.52;6.38;;;;;;;;;;5005467;28;20208;-82
2023/08/22 07:41:46;;;;;;;7.55;6.95;;;;;;;;;;4996673;28;20513;-86
2023/08/22 07:44:18;;;;;;;7.97;6.45;;;;;;;;;;4999544;28;20212;-86
2023/08/22 07:46:49;;;;;;;6.10;5.70;;;;;;;;;;5010275;28;20711;-84
2023/08/22 07:49:21;;;;;;;5.95;5.45;;;;;;;;;;4996324;28;20310;-86
2023/08/22 07:51:50;;;;;;;6.50;6.00;;;;;;;;;;5007672;28;20609;-84
2023/08/22 07:54:32;;;;;;;8.63;6.50;;;;;;;;;;5008321;28;20220;-81
2023/08/22 07:56:59;;;;;;;7.03;6.32;;;;;;;;;;5010899;28;20231;-83
2023/08/22 07:59:27;;;;;;;7.45;6.15;;;;;;;;;;5006125;28;20692;-84
2023/08/22 08:02:04;;;;;;;9.07;6.40;;;;;;;;;;5008685;28;20231;-82
2023/08/22 08:04:33;;;;;;;7.03;6.43;;;;;;;;;;5010585;28;20419;-84
2023/08/22 08:07:03;;;;;;;6.90;6.30;;;;;;;;;;5007296;28;20716;-84
2023/08/22 08:09:33;;;;;;;6.78;6.18;;;;;;;;;;5007461;28;20259;-83
2023/08/22 08:12:01;;;;;;;6.07;5.57;;;;;;;;;;5006040;28;20676;-82
2023/08/22 08:14:33;;;;;;;6.15;5.60;;;;;;;;;;4998950;28;20220;-85
2023/08/22 08:17:17;;;;;;;7.07;5.88;;;;;;;;;;4988324;28;20250;-85
2023/08/22 08:19:47;;;;;;;6.47;5.57;;;;;;;;;;4991306;28;20225;-85
2023/08/22 08:22:16;;;;;;;6.53;5.95;;;;;;;;;;4988785;28;20304;-85
2023/08/22 08:24:44;;;;;;;5.95;5.45;;;;;;;;;;4990935;28;20233;-84
2023/08/22 08:27:15;;;;;;;5.35;4.90;;;;;;;;;;4997786;28;20646;-84
2023/08/22 08:29:43;;;;;;;6.40;5.85;;;;;;;;;;5010420;28;20224;-83
2023/08/22 08:32:11;;;;;;;9.10;5.30;;;;;;;;;;5010105;28;20672;-85
2023/08/22 08:34:41;;;;;;;7.97;5.75;;;;;;;;;;5009865;28;20263;-84
2023/08/22 08:40:05;;;;;;;5.72;5.30;;;;;;;;;;5017687;27;1344730;-84
2023/08/22 08:42:35;;;;;;;9.32;5.25;;;;;;;;;;5040967;28;20257;-83
2023/08/22 08:45:05;;;;;;;7.50;5.53;;;;;;;;;;5043054;28;20258;-86
2023/08/22 08:47:36;;;;;;;4.93;4.43;;;;;;;;;;5039473;28;20238;-84
2023/08/22 08:50:07;;;;;;;5.50;5.00;;;;;;;;;;5040211;28;20352;-84
2023/08/22 08:52:37;;;;;;;6.00;5.40;;;;;;;;;;5042431;28;20317;-82
2023/08/22 08:55:06;;;;;;;5.63;5.22;;;;;;;;;;5043542;28;20716;-84
2023/08/22 08:57:34;;;;;;;4.38;4.15;;;;;;;;;;5031363;28;20246;-84
2023/08/22 09:00:06;;;;;;;4.65;4.45;;;;;;;;;;5036554;28;20307;-84
2023/08/22 09:02:36;;;;;;;7.00;6.35;;;;;;;;;;5049094;28;20226;-83
2023/08/22 09:05:04;;;;;;;6.05;5.32;;;;;;;;;;5048423;28;20294;-83
2023/08/22 09:07:47;;;;;;;4.30;3.90;;;;;;;;;;5060301;28;20219;-84
2023/08/22 09:10:41;;;;;;;4.40;4.13;;;;;;;;;;5035677;28;20223;-85
2023/08/22 09:13:28;;;;;;;4.68;4.38;;;;;;;;;;5019104;28;20250;-84
2023/08/22 09:16:26;;;;;;;4.47;4.18;;;;;;;;;;5023751;28;20236;-84
2023/08/22 09:19:08;;;;;;;7.80;4.78;;;;;;;;;;5022811;28;20251;-86
2023/08/22 09:22:08;;;;;;;4.85;4.55;;;;;;;;;;5025220;28;21155;-84
2023/08/22 09:25:07;;;;;;;4.85;4.55;;;;;;;;;;5023385;28;20285;-86
2023/08/22 09:27:48;;;;;;;4.28;4.03;;;;;;;;;;5013193;28;22331;-84
2023/08/22 09:33:17;;;;;;;4.05;3.80;;;;;;;;;;5020180;28;20646;-89
2023/08/22 09:35:46;;;;;;;4.28;4.00;;;;;;;;;;5024367;28;20216;-86
2023/08/22 09:38:15;;;;;;;4.18;3.88;;;;;;;;;;5020854;28;20680;-85
2023/08/22 09:40:49;;;;;;;4.70;4.30;;;;;;;;;;5025106;28;20226;-85
2023/08/22 09:43:16;;;;;;;4.38;4.05;;;;;;;;;;5023715;28;20258;-84
2023/08/22 09:45:47;;;;;;;11.00;4.07;;;;;;;;;;5024316;28;20216;-85
2023/08/22 09:48:19;;;;;;;4.35;4.05;;;;;;;;;;5016980;28;20223;-85
2023/08/22 09:50:49;;;;;;;5.07;4.55;;;;;;;;;;5015294;28;20534;-85
2023/08/22 09:53:28;;;;;;;9.85;4.43;;;;;;;;;;5007252;28;20633;-85
2023/08/22 09:55:56;;;;;;;4.25;3.92;;;;;;;;;;5012566;28;20240;-85
2023/08/22 09:58:25;;;;;;;8.15;4.32;;;;;;;;;;5004798;28;20672;-85
2023/08/22 10:03:50;;;;;;;6.35;4.20;;;;;;;;;;5005899;28;20287;-86
2023/08/22 10:06:18;;;;;;;3.35;3.15;;;;;;;;;;5010180;28;20604;-86
2023/08/22 10:08:48;;;;;;;9.02;3.90;;;;;;;;;;4999345;28;20565;-84
2023/08/22 10:11:17;;;;;;;5.50;4.35;;;;;;;;;;5009825;28;20704;-86
2023/08/22 10:13:47;;;;;;;3.75;3.55;;;;;;;;;;5006371;28;20272;-84
2023/08/22 10:16:19;;;;;;;4.35;4.05;;;;;;;;;;5010836;28;20279;-83
2023/08/22 10:18:49;;;;;;;3.88;3.33;;;;;;;;;;5007454;28;20267;-84
2023/08/22 10:21:17;;;;;;;3.60;3.40;;;;;;;;;;5009943;28;20270;-84
2023/08/22 10:24:00;;;;;;;3.75;3.55;;;;;;;;;;5004296;28;20228;-83
2023/08/22 10:26:28;;;;;;;3.72;3.58;;;;;;;;;;5010257;28;20256;-85
2023/08/22 10:29:15;;;;;;;3.65;3.45;;;;;;;;;;5025890;28;20215;-84
2023/08/22 10:32:03;;;;;;;4.28;3.97;;;;;;;;;;5031330;28;20378;-85
2023/08/22 10:34:56;;;;;;;3.85;3.53;;;;;;;;;;5029799;28;20231;-85
2023/08/22 10:37:26;;;;;;;4.15;3.80;;;;;;;;;;5029326;28;20249;-84
2023/08/22 10:39:59;;;;;;;3.97;3.75;;;;;;;;;;5007271;28;20278;-85
2023/08/22 10:42:26;;;;;;;4.00;3.80;;;;;;;;;;5010425;28;20219;-86
2023/08/22 10:44:58;;;;;;;4.07;3.88;;;;;;;;;;5004784;28;20239;-84
2023/08/22 10:47:25;;;;;;;3.85;3.55;;;;;;;;;;5009279;28;20224;-84
2023/08/22 10:49:54;;;;;;;3.45;3.15;;;;;;;;;;5009432;28;20556;-84
2023/08/22 10:52:43;;;;;;;3.60;3.22;;;;;;;;;;5012140;28;20225;-84
2023/08/22 10:55:16;;;;;;;3.75;3.50;;;;;;;;;;5002623;28;20235;-85
2023/08/22 10:57:46;;;;;;;4.07;3.83;;;;;;;;;;4997948;28;20240;-86
2023/08/22 11:00:27;;;;;;;3.70;3.35;;;;;;;;;;4985816;28;20233;-85
2023/08/22 11:02:57;;;;;;;4.28;3.92;;;;;;;;;;4990895;28;20611;-86
2023/08/22 11:05:26;;;;;;;4.45;4.15;;;;;;;;;;4987689;28;20225;-85
2023/08/22 11:07:55;;;;;;;5.00;4.50;;;;;;;;;;4992415;28;20256;-83
2023/08/22 11:10:25;;;;;;;3.85;3.65;;;;;;;;;;4998071;28;20681;-83
2023/08/22 11:12:54;;;;;;;8.77;4.43;;;;;;;;;;5001549;28;20220;-84
2023/08/22 11:15:23;;;;;;;4.35;4.05;;;;;;;;;;4994500;28;20617;-83
2023/08/22 11:17:53;;;;;;;3.70;3.50;;;;;;;;;;4992096;28;20309;-86
2023/08/22 11:20:21;;;;;;;4.18;3.95;;;;;;;;;;5000355;28;20344;-83
2023/08/22 11:22:50;;;;;;;3.88;3.60;;;;;;;;;;4984926;28;20227;-84
2023/08/22 11:25:25;;;;;;;4.07;3.78;;;;;;;;;;5006777;28;20702;-84
2023/08/22 11:27:54;;;;;;;3.47;3.28;;;;;;;;;;4997373;28;20616;-84
2023/08/22 11:30:20;;;;;;;3.83;3.22;;;;;;;;;;4987876;28;20313;-85
2023/08/22 11:32:49;;;;;;;3.97;3.65;;;;;;;;;;4988424;28;20299;-85
2023/08/22 11:35:17;;;;;;;3.33;3.13;;;;;;;;;;4989390;28;20216;-85
2023/08/22 11:37:46;;;;;;;4.03;3.83;;;;;;;;;;4987876;28;20221;-84
2023/08/22 11:40:16;;;;;;;3.70;3.50;;;;;;;;;;5007885;28;20255;-84
2023/08/22 11:42:47;;;;;;;9.07;4.45;;;;;;;;;;5007951;28;20581;-84
2023/08/22 11:45:17;;;;;;;5.40;4.05;;;;;;;;;;5008602;28;20235;-83
2023/08/22 11:47:45;;;;;;;4.30;4.00;;;;;;;;;;5004033;28;20224;-84
2023/08/22 11:50:14;;;;;;;4.35;4.05;;;;;;;;;;5008910;28;20332;-84
2023/08/22 11:52:44;;;;;;;5.57;4.15;;;;;;;;;;4998710;28;20718;-84
2023/08/22 11:55:14;;;;;;;4.43;4.22;;;;;;;;;;4987429;28;20244;-85
2023/08/22 11:57:44;;;;;;;7.32;4.15;;;;;;;;;;4997803;28;20274;-87
2023/08/22 12:00:15;;;;;;;5.43;4.93;;;;;;;;;;5008203;28;20620;-84
2023/08/22 12:02:46;;;;;;;4.30;4.00;;;;;;;;;;5002080;28;20259;-86
2023/08/22 12:05:32;;;;;;;4.70;4.20;;;;;;;;;;5009073;28;20228;-85
2023/08/22 12:08:00;;;;;;;3.72;3.53;;;;;;;;;;5001106;28;20227;-83
2023/08/22 12:10:40;;;;;;;3.97;3.67;;;;;;;;;;5007023;28;20232;-84
2023/08/22 12:13:08;;;;;;;5.80;4.65;;;;;;;;;;5008512;28;20224;-83
2023/08/22 12:15:40;;;;;;;4.38;4.00;;;;;;;;;;5008450;28;20266;-82
2023/08/22 12:18:08;;;;;;;4.15;3.85;;;;;;;;;;5004195;28;20286;-85
2023/08/22 12:20:40;;;;;;;4.35;4.00;;;;;;;;;;5005701;28;20292;-83
2023/08/22 12:23:08;;;;;;;4.72;4.25;;;;;;;;;;4996983;28;20225;-83
2023/08/22 12:25:38;;;;;;;4.20;3.90;;;;;;;;;;4987500;28;20233;-84
2023/08/22 12:28:11;;;;;;;4.10;3.80;;;;;;;;;;5001425;28;20236;-84
2023/08/22 12:30:52;;;;;;;3.95;3.70;;;;;;;;;;5006681;28;20479;-83
2023/08/22 12:33:23;;;;;;;4.15;3.72;;;;;;;;;;5006407;28;20224;-82
2023/08/22 12:35:53;;;;;;;5.63;4.40;;;;;;;;;;4987326;28;20261;-83
2023/08/22 12:38:20;;;;;;;5.20;4.20;;;;;;;;;;4984652;28;20240;-84
2023/08/22 12:40:50;;;;;;;4.25;3.95;;;;;;;;;;4987709;28;20515;-83
2023/08/22 12:43:17;;;;;;;4.65;4.28;;;;;;;;;;4985058;28;20259;-84
2023/08/22 12:45:49;;;;;;;4.72;4.43;;;;;;;;;;4988018;28;20236;-83
2023/08/22 12:48:17;;;;;;;4.13;3.83;;;;;;;;;;4986978;28;20233;-84
2023/08/22 12:50:46;;;;;;;3.80;3.60;;;;;;;;;;4985799;28;20229;-84
2023/08/22 12:53:17;;;;;;;4.38;4.00;;;;;;;;;;4973119;28;20233;-82
2023/08/22 12:55:47;;;;;;;4.20;3.80;;;;;;;;;;4967553;28;20230;-83
2023/08/22 12:58:16;;;;;;;4.68;4.38;;;;;;;;;;4993920;28;20334;-84
2023/08/22 13:00:44;;;;;;;4.97;4.60;;;;;;;;;;5007185;28;20244;-83
2023/08/22 13:03:17;;;;;;;4.10;3.53;;;;;;;;;;4995287;28;20312;-83
2023/08/22 13:05:46;;;;;;;8.77;4.55;;;;;;;;;;4986619;28;20307;-83
2023/08/22 13:08:15;;;;;;;5.25;3.97;;;;;;;;;;4996229;28;20240;-83
2023/08/22 13:10:44;;;;;;;3.47;3.17;;;;;;;;;;4987123;28;20241;-84
2023/08/22 13:13:12;;;;;;;4.18;3.88;;;;;;;;;;4979418;28;20243;-83
2023/08/22 13:15:42;;;;;;;3.80;3.50;;;;;;;;;;4987112;28;20233;-82
2023/08/22 13:18:09;;;;;;;3.90;3.60;;;;;;;;;;4983016;28;20254;-84
2023/08/22 13:20:39;;;;;;;8.32;3.45;;;;;;;;;;4986012;28;20241;-82
2023/08/22 13:23:06;;;;;;;4.68;4.25;;;;;;;;;;4987139;28;20245;-80
2023/08/22 13:25:34;;;;;;;4.47;4.07;;;;;;;;;;4989001;28;20261;-78
2023/08/22 13:28:02;;;;;;;5.30;4.57;;;;;;;;;;4990805;28;20711;-79
2023/08/22 13:30:29;;;;;;;4.50;4.18;;;;;;;;;;4990049;28;20253;-82
2023/08/22 13:32:56;;;;;;;3.72;3.42;;;;;;;;;;4992265;28;20217;-81
2023/08/22 13:35:24;;;;;;;5.68;4.85;;;;;;;;;;4989833;28;20389;-80
2023/08/22 13:37:52;;;;;;;7.05;4.53;;;;;;;;;;4990561;28;20303;-81
2023/08/22 13:40:20;;;;;;;5.28;4.82;;;;;;;;;;4987804;28;20308;-82
2023/08/22 13:42:48;;;;;;;4.32;3.88;;;;;;;;;;4991255;28;20232;-81
2023/08/22 13:45:16;;;;;;;7.50;4.63;;;;;;;;;;4990907;28;20717;-82
2023/08/22 13:47:46;;;;;;;4.07;3.80;;;;;;;;;;4991469;28;20328;-82
2023/08/22 13:50:15;;;;;;;4.35;3.95;;;;;;;;;;4987108;28;20229;-82
2023/08/22 13:52:42;;;;;;;3.95;3.75;;;;;;;;;;4990258;28;20237;-81
2023/08/22 13:55:11;;;;;;;4.45;4.15;;;;;;;;;;4990298;28;20662;-83
2023/08/22 13:57:42;;;;;;;4.65;4.22;;;;;;;;;;4990455;28;20728;-81
2023/08/22 14:00:10;;;;;;;4.53;3.53;;;;;;;;;;4987555;28;20625;-82
2023/08/22 14:02:38;;;;;;;4.03;3.70;;;;;;;;;;4991006;28;20234;-83
2023/08/22 14:05:07;;;;;;;4.65;4.35;;;;;;;;;;4990291;28;20780;-81
2023/08/22 14:07:34;;;;;;;4.43;4.13;;;;;;;;;;4990025;28;20260;-83
2023/08/22 14:10:03;;;;;;;5.05;4.60;;;;;;;;;;4990225;28;20710;-81
2023/08/22 14:12:33;;;;;;;4.20;3.90;;;;;;;;;;4990928;28;20228;-82
2023/08/22 14:15:01;;;;;;;3.90;3.60;;;;;;;;;;4989973;28;20741;-81
2023/08/22 14:17:31;;;;;;;4.60;4.30;;;;;;;;;;4989573;28;20800;-81
2023/08/22 14:20:00;;;;;;;4.63;4.22;;;;;;;;;;4988535;28;20251;-82
2023/08/22 14:22:27;;;;;;;4.65;4.35;;;;;;;;;;4990471;28;20261;-81
2023/08/22 14:24:56;;;;;;;4.53;4.07;;;;;;;;;;4986448;28;20320;-81
2023/08/22 14:27:24;;;;;;;3.78;3.58;;;;;;;;;;4993668;28;20229;-82
2023/08/22 14:29:53;;;;;;;4.25;4.03;;;;;;;;;;4997679;28;20279;-82
2023/08/22 14:32:23;;;;;;;4.18;3.88;;;;;;;;;;4994768;28;20667;-86
2023/08/22 14:34:53;;;;;;;4.70;4.40;;;;;;;;;;4998855;28;20293;-82
2023/08/22 14:37:23;;;;;;;4.47;4.07;;;;;;;;;;4996437;28;20710;-82
2023/08/22 14:39:54;;;;;;;4.53;3.80;;;;;;;;;;5008117;28;20234;-83
2023/08/22 14:42:23;;;;;;;4.35;4.07;;;;;;;;;;4991765;28;20308;-83
2023/08/22 14:44:51;;;;;;;4.05;3.78;;;;;;;;;;4992039;28;20677;-84
2023/08/22 14:47:21;;;;;;;3.83;3.55;;;;;;;;;;4991511;28;20319;-84
2023/08/22 14:49:49;;;;;;;4.28;3.72;;;;;;;;;;4990330;28;20385;-85
2023/08/22 14:52:21;;;;;;;6.38;3.78;;;;;;;;;;4983874;28;20218;-83
2023/08/22 14:54:50;;;;;;;5.22;3.65;;;;;;;;;;4991850;28;20233;-83
2023/08/22 14:57:18;;;;;;;3.38;3.17;;;;;;;;;;4988482;28;20229;-85
2023/08/22 14:59:47;;;;;;;3.63;3.35;;;;;;;;;;4989338;28;20225;-83
2023/08/22 15:02:18;;;;;;;4.25;3.95;;;;;;;;;;4990134;28;20287;-83
2023/08/22 15:04:47;;;;;;;4.13;3.80;;;;;;;;;;4990588;28;20268;-84
2023/08/22 15:07:20;;;;;;;4.68;3.67;;;;;;;;;;4983492;28;20636;-82
2023/08/22 15:09:49;;;;;;;3.40;3.20;;;;;;;;;;4989776;28;20264;-84
2023/08/22 15:12:17;;;;;;;4.53;3.50;;;;;;;;;;4981105;28;20394;-87